createdAt,value
2019-02-14T00:03:06.970Z,2.73
2019-02-14T00:08:09.025Z,2.70
2019-02-14T00:13:10.586Z,2.68
2019-02-14T00:18:12.267Z,2.63
2019-02-14T00:23:13.828Z,2.59
2019-02-14T00:28:15.496Z,2.54
2019-02-14T00:33:17.078Z,2.50
2019-02-14T00:38:19.101Z,2.47
2019-02-14T00:43:20.808Z,2.47
2019-02-14T00:48:22.398Z,2.45
2019-02-14T00:53:24.494Z,2.44
2019-02-14T00:58:26.112Z,2.43
2019-02-14T01:03:27.686Z,2.40
2019-02-14T01:08:29.331Z,2.40
2019-02-14T01:13:31.306Z,2.39
2019-02-14T01:18:32.956Z,2.36
2019-02-14T01:23:34.901Z,2.35
2019-02-14T01:28:36.458Z,2.33
2019-02-14T01:33:38.430Z,2.34
2019-02-14T01:38:40.058Z,2.32
2019-02-14T01:43:41.691Z,2.30
2019-02-14T01:48:43.257Z,2.28
2019-02-14T01:53:44.881Z,2.24
2019-02-14T01:58:46.556Z,2.20
2019-02-14T02:03:48.128Z,2.15
2019-02-14T02:08:49.707Z,2.13
2019-02-14T02:13:51.308Z,2.10
2019-02-14T02:18:53.264Z,2.05
2019-02-14T02:23:54.901Z,2.01
2019-02-14T02:28:56.488Z,1.94
2019-02-14T02:33:58.128Z,1.88
2019-02-14T02:38:59.710Z,1.83
2019-02-14T02:44:01.268Z,1.76
2019-02-14T02:49:02.891Z,1.71
2019-02-14T02:54:04.475Z,1.69
2019-02-14T02:59:06.027Z,1.63
2019-02-14T03:04:07.570Z,1.60
2019-02-14T03:09:09.152Z,1.59
2019-02-14T03:14:10.760Z,1.56
2019-02-14T03:19:12.320Z,1.53
2019-02-14T03:24:13.904Z,1.49
2019-02-14T03:29:15.455Z,1.49
2019-02-14T03:34:17.031Z,1.46
2019-02-14T03:39:18.662Z,1.43
2019-02-14T03:44:20.564Z,1.40
2019-02-14T03:49:22.148Z,1.37
2019-02-14T03:54:23.689Z,1.37
2019-02-14T03:59:25.360Z,1.34
2019-02-14T04:04:26.922Z,1.33
2019-02-14T04:09:28.479Z,1.28
2019-02-14T04:14:30.068Z,1.24
2019-02-14T04:19:31.994Z,1.19
2019-02-14T04:24:33.523Z,1.17
2019-02-14T04:29:35.128Z,1.16
2019-02-14T04:34:36.660Z,1.17
2019-02-14T04:39:38.248Z,1.15
2019-02-14T04:44:39.816Z,1.05
2019-02-14T04:49:42.112Z,0.98
2019-02-14T04:54:43.709Z,0.92
2019-02-14T04:59:45.275Z,0.86
2019-02-14T05:04:47.152Z,0.79
2019-02-14T05:09:48.689Z,0.76
2019-02-14T05:14:50.283Z,0.78
2019-02-14T05:19:52.357Z,0.82
2019-02-14T05:24:54.013Z,0.83
2019-02-14T05:29:55.603Z,0.82
2019-02-14T05:34:57.357Z,0.79
2019-02-14T05:39:58.933Z,0.76
2019-02-14T05:45:00.586Z,0.74
2019-02-14T05:50:02.290Z,0.77
2019-02-14T05:55:04.405Z,0.78
2019-02-14T06:00:07.865Z,0.75
2019-02-14T06:05:09.435Z,0.78
2019-02-14T06:10:11.203Z,0.77
2019-02-14T06:15:12.803Z,0.79
2019-02-14T06:20:14.456Z,0.81
2019-02-14T06:25:16.061Z,0.82
2019-02-14T06:30:17.646Z,0.80
2019-02-14T06:35:19.274Z,0.79
2019-02-14T06:40:20.855Z,0.78
2019-02-14T06:45:22.454Z,0.76
2019-02-14T06:50:24.176Z,0.71
2019-02-14T06:55:25.740Z,0.72
2019-02-14T07:00:27.360Z,0.67
2019-02-14T07:05:28.917Z,0.64
2019-02-14T07:10:30.489Z,0.63
2019-02-14T07:15:32.053Z,0.64
2019-02-14T07:20:33.617Z,0.62
2019-02-14T07:25:35.255Z,0.62
2019-02-14T07:30:36.901Z,0.68
2019-02-14T07:35:38.491Z,0.72
2019-02-14T07:40:40.052Z,0.76
2019-02-14T07:45:41.677Z,0.79
2019-02-14T07:50:43.674Z,0.84
2019-02-14T07:55:45.276Z,0.86
2019-02-14T08:00:46.849Z,0.90
2019-02-14T08:05:48.419Z,0.96
2019-02-14T08:10:50.099Z,1.00
2019-02-14T08:15:51.719Z,1.04
2019-02-14T08:20:53.781Z,1.09
2019-02-14T08:25:55.351Z,1.18
2019-02-14T08:30:57.037Z,1.26
2019-02-14T08:36:00.411Z,1.35
2019-02-14T08:41:02.013Z,1.45
2019-02-14T08:46:03.572Z,1.53
2019-02-14T08:51:05.211Z,1.64
2019-02-14T08:56:06.908Z,1.77
2019-02-14T09:01:08.839Z,1.93
2019-02-14T09:06:10.457Z,2.15
2019-02-14T09:11:12.130Z,2.43
2019-02-14T09:16:14.052Z,2.72
2019-02-14T09:21:15.677Z,3.03
2019-02-14T09:26:17.358Z,3.35
2019-02-14T09:31:19.573Z,3.67
2019-02-14T09:36:21.354Z,4.02
2019-02-14T09:41:23.444Z,4.36
2019-02-14T09:46:26.767Z,4.66
2019-02-14T09:51:28.373Z,5.04
2019-02-14T09:56:30.002Z,5.44
2019-02-14T10:01:31.946Z,5.75
2019-02-14T10:06:36.699Z,6.09
2019-02-14T10:11:37.949Z,6.51
2019-02-14T10:16:39.528Z,6.88
2019-02-14T10:21:41.173Z,7.25
2019-02-14T10:26:42.832Z,7.62
2019-02-14T10:31:44.425Z,7.89
2019-02-14T10:36:46.047Z,8.28
2019-02-14T10:41:47.657Z,8.54
2019-02-14T10:46:49.319Z,8.86
2019-02-14T10:51:50.934Z,9.01
2019-02-14T10:56:52.573Z,9.14
2019-02-14T11:01:54.164Z,9.36
2019-02-14T11:06:56.267Z,9.66
2019-02-14T11:11:57.814Z,9.85
2019-02-14T11:16:59.799Z,10.09
2019-02-14T11:22:01.376Z,10.29
2019-02-14T11:27:02.992Z,10.39
2019-02-14T11:32:04.638Z,10.52
2019-02-14T11:37:06.150Z,10.65
2019-02-14T11:42:07.747Z,10.79
2019-02-14T11:47:09.360Z,10.88
2019-02-14T11:52:11.043Z,10.98
2019-02-14T11:57:13.512Z,11.05
2019-02-14T12:02:15.535Z,11.16
2019-02-14T12:07:17.565Z,11.30
2019-02-14T12:12:20.758Z,11.36
2019-02-14T12:17:22.926Z,11.46
2019-02-14T12:22:24.509Z,11.54
2019-02-14T12:27:26.142Z,11.64
2019-02-14T12:32:27.807Z,11.63
2019-02-14T12:37:29.458Z,11.72
2019-02-14T12:42:31.047Z,11.86
2019-02-14T12:47:32.766Z,12.02
2019-02-14T12:52:34.380Z,12.20
2019-02-14T12:57:37.047Z,12.22
2019-02-14T13:02:38.670Z,12.30
2019-02-14T13:07:40.699Z,12.45
2019-02-14T13:12:42.359Z,12.59
2019-02-14T13:17:43.921Z,12.60
2019-02-14T13:22:46.434Z,12.70
2019-02-14T13:27:48.103Z,12.93
2019-02-14T13:32:49.688Z,13.06
2019-02-14T13:37:51.317Z,13.17
2019-02-14T13:42:52.980Z,13.31
2019-02-14T13:47:54.532Z,13.42
2019-02-14T13:52:57.147Z,13.50
2019-02-14T13:57:58.861Z,13.56
2019-02-14T14:03:00.868Z,13.71
2019-02-14T14:08:02.510Z,13.82
2019-02-14T14:13:04.508Z,13.88
2019-02-14T14:18:06.150Z,13.96
2019-02-14T14:23:07.719Z,14.06
2019-02-14T14:28:09.747Z,14.06
2019-02-14T14:33:11.800Z,14.03
2019-02-14T14:38:13.360Z,14.12
2019-02-14T14:43:14.955Z,14.15
2019-02-14T14:48:19.560Z,14.22
2019-02-14T14:53:20.011Z,14.24
2019-02-14T14:58:21.739Z,14.41
2019-02-14T15:03:23.313Z,14.48
2019-02-14T15:08:24.940Z,14.57
2019-02-14T15:13:26.986Z,14.55
2019-02-14T15:18:28.602Z,14.60
2019-02-14T15:23:30.269Z,14.60
2019-02-14T15:28:31.856Z,14.55
2019-02-14T15:33:33.554Z,14.53
2019-02-14T15:38:37.058Z,14.56
2019-02-14T15:43:38.931Z,14.56
2019-02-14T15:48:41.032Z,14.61
2019-02-14T15:53:44.263Z,14.58
2019-02-14T15:58:46.163Z,14.46
2019-02-14T16:03:47.849Z,14.40
2019-02-14T16:08:49.454Z,14.31
2019-02-14T16:13:52.847Z,14.26
2019-02-14T16:18:54.906Z,14.13
2019-02-14T16:23:56.530Z,13.89
2019-02-14T16:28:59.838Z,13.73
2019-02-14T16:34:01.614Z,13.53
2019-02-14T16:39:04.264Z,13.25
2019-02-14T16:44:05.872Z,12.95
2019-02-14T16:49:07.872Z,12.68
2019-02-14T16:54:09.502Z,12.39
2019-02-14T16:59:11.072Z,12.04
2019-02-14T17:04:13.071Z,11.69
2019-02-14T17:09:14.758Z,11.30
2019-02-14T17:14:16.348Z,11.13
2019-02-14T17:19:18.386Z,10.76
2019-02-14T17:24:19.983Z,10.54
2019-02-14T17:29:21.905Z,10.31
2019-02-14T17:34:23.929Z,10.04
2019-02-14T17:39:25.602Z,9.75
2019-02-14T17:44:27.224Z,9.43
2019-02-14T17:49:28.832Z,9.19
2019-02-14T17:54:30.748Z,8.98
2019-02-14T17:59:33.821Z,8.74
2019-02-14T18:04:35.553Z,8.52
2019-02-14T18:09:37.500Z,8.33
2019-02-14T18:14:39.173Z,8.20
2019-02-14T18:19:41.196Z,8.06
2019-02-14T18:24:42.827Z,7.90
2019-02-14T18:29:44.405Z,7.78
2019-02-14T18:34:46.071Z,7.63
2019-02-14T18:39:47.986Z,7.49
2019-02-14T18:44:49.599Z,7.39
2019-02-14T18:49:51.603Z,7.26
2019-02-14T18:54:53.298Z,7.14
2019-02-14T18:59:55.350Z,7.05
2019-02-14T19:04:57.021Z,6.94
2019-02-14T19:09:59.080Z,6.86
2019-02-14T19:15:00.907Z,6.76
2019-02-14T19:20:02.876Z,6.65
2019-02-14T19:25:04.637Z,6.54
2019-02-14T19:30:06.960Z,6.42
2019-02-14T19:35:08.650Z,6.30
2019-02-14T19:40:10.269Z,6.20
2019-02-14T19:45:12.848Z,6.12
2019-02-14T19:50:14.557Z,6.00
2019-02-14T19:55:16.140Z,5.86
2019-02-14T20:00:18.212Z,5.79
2019-02-14T20:05:19.879Z,5.68
2019-02-14T20:10:21.485Z,5.60
2019-02-14T20:15:23.117Z,5.48
2019-02-14T20:20:24.837Z,5.37
2019-02-14T20:25:26.973Z,5.24
2019-02-14T20:30:28.548Z,5.12
2019-02-14T20:35:30.609Z,5.00
2019-02-14T20:40:32.275Z,4.87
2019-02-14T20:45:35.532Z,4.81
2019-02-14T20:50:37.223Z,4.81
2019-02-14T20:55:38.975Z,4.72
2019-02-14T21:00:40.951Z,4.66
2019-02-14T21:05:42.503Z,4.59
2019-02-14T21:10:44.869Z,4.52
2019-02-14T21:15:46.606Z,4.41
2019-02-14T21:20:48.228Z,4.31
2019-02-14T21:25:49.937Z,4.23
2019-02-14T21:30:51.949Z,4.13
2019-02-14T21:35:53.571Z,4.02
2019-02-14T21:40:55.174Z,3.90
2019-02-14T21:45:57.660Z,3.80
2019-02-14T21:50:59.419Z,3.69
2019-02-14T21:56:01.393Z,3.61
2019-02-14T22:01:03.014Z,3.57
2019-02-14T22:06:05.733Z,3.54
2019-02-14T22:11:07.413Z,3.47
2019-02-14T22:16:08.994Z,3.38
2019-02-14T22:21:10.615Z,3.26
2019-02-14T22:26:12.191Z,3.13
2019-02-14T22:31:13.780Z,3.07
2019-02-14T22:36:15.408Z,3.01
2019-02-14T22:41:16.985Z,2.95
2019-02-14T22:46:18.606Z,2.96
2019-02-14T22:51:20.217Z,2.92
2019-02-14T22:56:22.489Z,2.86
2019-02-14T23:01:24.216Z,2.81
2019-02-14T23:06:25.880Z,2.73
2019-02-14T23:11:27.518Z,2.71
2019-02-14T23:16:29.147Z,2.70
2019-02-14T23:21:30.715Z,2.63
2019-02-14T23:26:32.368Z,2.56
2019-02-14T23:31:34.352Z,2.50
2019-02-14T23:36:35.929Z,2.48
2019-02-14T23:41:37.469Z,2.43
2019-02-14T23:46:39.078Z,2.39
2019-02-14T23:51:41.148Z,2.38
2019-02-14T23:56:42.708Z,2.36
